createdAt,value
2022-12-03T00:00:33.141Z,8.05
2022-12-03T00:03:22.250Z,11.45
2022-12-03T00:05:52.851Z,9.10
2022-12-03T00:08:22.827Z,10.32
2022-12-03T00:10:57.196Z,8.45
2022-12-03T00:13:30.515Z,9.05
2022-12-03T00:16:00.411Z,9.20
2022-12-03T00:18:30.548Z,11.75
2022-12-03T00:21:07.445Z,11.75
2022-12-03T00:23:42.291Z,10.70
2022-12-03T00:26:19.579Z,7.85
2022-12-03T00:28:51.012Z,12.48
2022-12-03T00:31:19.028Z,9.45
2022-12-03T00:33:53.985Z,10.30
2022-12-03T00:36:24.275Z,11.20
2022-12-03T00:38:56.205Z,9.90
2022-12-03T00:41:26.544Z,11.15
2022-12-03T00:43:57.658Z,10.63
2022-12-03T00:46:25.661Z,9.55
2022-12-03T00:48:54.363Z,8.70
2022-12-03T00:51:31.228Z,9.38
2022-12-03T00:56:49.286Z,7.53
2022-12-03T00:59:17.701Z,8.98
2022-12-03T01:01:47.443Z,8.82
2022-12-03T01:04:17.240Z,9.77
2022-12-03T01:06:49.496Z,10.10
2022-12-03T01:09:18.184Z,9.75
2022-12-03T01:11:47.686Z,9.27
2022-12-03T01:14:17.358Z,8.90
2022-12-03T01:16:47.203Z,12.02
2022-12-03T01:19:16.895Z,8.48
2022-12-03T01:21:48.951Z,8.98
2022-12-03T01:24:18.072Z,10.88
2022-12-03T01:26:46.182Z,8.85
2022-12-03T01:29:14.360Z,10.02
2022-12-03T01:32:02.281Z,12.10
2022-12-03T01:34:29.667Z,12.15
2022-12-03T01:36:57.782Z,11.98
2022-12-03T01:39:25.102Z,11.43
2022-12-03T01:41:54.375Z,9.10
2022-12-03T01:44:27.889Z,11.27
2022-12-03T01:46:59.624Z,11.30
2022-12-03T01:49:31.620Z,9.32
2022-12-03T01:52:02.121Z,10.65
2022-12-03T01:54:39.077Z,10.45
2022-12-03T01:57:32.438Z,9.32
2022-12-03T02:00:02.336Z,9.20
2022-12-03T02:02:46.936Z,10.20
2022-12-03T02:05:34.789Z,9.88
2022-12-03T02:08:58.851Z,9.38
2022-12-03T02:11:34.590Z,9.40
2022-12-03T02:14:07.074Z,8.48
2022-12-03T02:16:38.257Z,9.18
2022-12-03T02:19:16.805Z,8.82
2022-12-03T02:21:59.679Z,8.63
2022-12-03T02:24:36.284Z,14.90
2022-12-03T02:27:06.412Z,10.25
2022-12-03T02:29:34.526Z,8.57
2022-12-03T02:32:09.381Z,9.50
2022-12-03T02:34:46.089Z,8.30
2022-12-03T02:37:20.185Z,9.80
2022-12-03T02:39:52.428Z,9.10
2022-12-03T02:42:35.691Z,9.32
2022-12-03T02:45:09.246Z,9.15
2022-12-03T02:47:42.555Z,7.68
2022-12-03T02:50:13.482Z,8.85
2022-12-03T02:52:44.781Z,8.23
2022-12-03T02:55:14.872Z,9.63
2022-12-03T02:57:45.951Z,8.73
2022-12-03T03:00:14.788Z,9.32
2022-12-03T03:02:46.599Z,9.10
2022-12-03T03:05:18.012Z,8.50
2022-12-03T03:07:45.611Z,8.77
2022-12-03T03:10:20.775Z,8.90
2022-12-03T03:12:48.781Z,9.63
2022-12-03T03:15:19.956Z,8.77
2022-12-03T03:17:47.222Z,9.63
2022-12-03T03:20:18.116Z,8.50
2022-12-03T03:22:48.042Z,9.45
2022-12-03T03:25:23.593Z,8.70
2022-12-03T03:27:53.106Z,8.05
2022-12-03T03:30:29.565Z,9.52
2022-12-03T03:32:58.672Z,8.05
2022-12-03T03:35:27.538Z,8.70
2022-12-03T03:37:57.022Z,9.05
2022-12-03T03:40:27.035Z,6.57
2022-12-03T03:42:56.336Z,8.02
2022-12-03T03:45:28.729Z,8.48
2022-12-03T03:47:59.157Z,7.43
2022-12-03T03:50:31.684Z,7.40
2022-12-03T03:53:01.575Z,8.43
2022-12-03T03:55:30.547Z,7.10
2022-12-03T03:57:58.801Z,7.22
2022-12-03T04:00:49.816Z,7.82
2022-12-03T04:03:18.002Z,7.35
2022-12-03T04:05:48.667Z,6.85
2022-12-03T04:08:20.610Z,8.98
2022-12-03T04:11:26.765Z,8.45
2022-12-03T04:13:54.266Z,6.38
2022-12-03T04:16:23.425Z,7.25
2022-12-03T04:18:52.231Z,7.28
2022-12-03T04:21:40.732Z,8.10
2022-12-03T04:24:13.870Z,8.02
2022-12-03T04:27:00.148Z,7.90
2022-12-03T04:29:27.405Z,7.30
2022-12-03T04:32:14.946Z,7.82
2022-12-03T04:35:00.543Z,8.63
2022-12-03T04:37:29.891Z,7.35
2022-12-03T04:39:58.588Z,7.22
2022-12-03T04:42:26.459Z,8.68
2022-12-03T04:44:54.781Z,8.27
2022-12-03T04:47:22.825Z,7.85
2022-12-03T04:49:52.583Z,7.40
2022-12-03T04:52:21.225Z,7.80
2022-12-03T04:54:48.701Z,7.20
2022-12-03T04:57:21.017Z,8.93
2022-12-03T04:59:48.604Z,8.18
2022-12-03T05:02:16.944Z,9.38
2022-12-03T05:04:49.524Z,8.90
2022-12-03T05:07:17.298Z,7.95
2022-12-03T05:09:45.418Z,8.35
2022-12-03T05:12:13.034Z,8.43
2022-12-03T05:14:45.219Z,7.97
2022-12-03T05:17:14.221Z,8.02
2022-12-03T05:20:00.357Z,9.38
2022-12-03T05:22:32.118Z,7.38
2022-12-03T05:25:01.414Z,7.85
2022-12-03T05:27:29.420Z,8.93
2022-12-03T05:30:01.248Z,9.43
2022-12-03T05:32:30.301Z,8.18
2022-12-03T05:34:57.609Z,8.52
2022-12-03T05:37:27.157Z,9.13
2022-12-03T05:39:54.701Z,8.05
2022-12-03T05:42:48.335Z,7.85
2022-12-03T05:45:15.949Z,9.18
2022-12-03T05:47:45.448Z,8.25
2022-12-03T05:50:12.947Z,8.82
2022-12-03T05:52:40.655Z,9.63
2022-12-03T05:55:08.510Z,9.85
2022-12-03T05:57:36.106Z,9.55
2022-12-03T06:00:14.794Z,8.63
2022-12-03T06:02:47.973Z,8.63
2022-12-03T06:05:19.626Z,8.65
2022-12-03T06:07:52.430Z,10.60
2022-12-03T06:10:23.683Z,19.90
2022-12-03T06:12:51.864Z,12.43
2022-12-03T06:15:19.556Z,15.20
2022-12-03T06:17:47.525Z,11.98
2022-12-03T06:20:20.307Z,14.65
2022-12-03T06:22:49.471Z,13.52
2022-12-03T06:25:16.864Z,13.35
2022-12-03T06:27:45.575Z,10.88
2022-12-03T06:30:14.934Z,11.05
2022-12-03T06:32:42.532Z,10.63
2022-12-03T06:35:10.099Z,12.48
2022-12-03T06:37:37.609Z,17.45
2022-12-03T06:40:08.635Z,13.85
2022-12-03T06:42:36.438Z,12.18
2022-12-03T06:45:03.927Z,10.00
2022-12-03T06:47:31.701Z,12.02
2022-12-03T06:49:58.935Z,9.55
2022-12-03T06:52:26.464Z,8.88
2022-12-03T06:54:53.976Z,11.32
2022-12-03T06:57:21.867Z,12.68
2022-12-03T06:59:49.171Z,10.82
2022-12-03T07:02:16.803Z,10.43
2022-12-03T07:04:46.592Z,12.05
2022-12-03T07:07:14.885Z,9.52
2022-12-03T07:09:43.503Z,10.85
2022-12-03T07:12:11.057Z,11.43
2022-12-03T07:14:38.320Z,19.77
2022-12-03T07:17:06.018Z,10.95
2022-12-03T07:19:33.417Z,11.60
2022-12-03T07:22:03.507Z,10.23
2022-12-03T07:24:31.253Z,10.60
2022-12-03T07:26:59.260Z,12.07
2022-12-03T07:29:26.769Z,15.95
2022-12-03T07:31:57.028Z,15.10
2022-12-03T07:34:24.492Z,19.95
2022-12-03T07:36:52.524Z,16.83
2022-12-03T07:39:20.699Z,14.70
2022-12-03T07:41:48.870Z,20.60
2022-12-03T07:44:16.495Z,39.25
2022-12-03T07:46:45.355Z,12.55
2022-12-03T07:49:12.681Z,16.92
2022-12-03T07:51:40.819Z,13.98
2022-12-03T07:54:08.246Z,17.17
2022-12-03T07:56:36.206Z,17.13
2022-12-03T07:59:11.160Z,14.07
2022-12-03T08:01:40.772Z,14.52
2022-12-03T08:04:12.564Z,11.48
2022-12-03T08:06:40.331Z,16.38
2022-12-03T08:09:10.902Z,13.00
2022-12-03T08:11:42.002Z,12.68
2022-12-03T08:14:13.877Z,13.00
2022-12-03T08:16:44.299Z,15.27
2022-12-03T08:19:13.958Z,11.85
2022-12-03T08:21:42.498Z,10.45
2022-12-03T08:24:17.052Z,12.88
2022-12-03T08:26:46.505Z,10.23
2022-12-03T08:29:18.907Z,13.27
2022-12-03T08:31:50.038Z,11.73
2022-12-03T08:34:28.547Z,17.40
2022-12-03T08:37:06.421Z,15.35
2022-12-03T08:39:48.593Z,21.60
2022-12-03T08:42:41.863Z,11.77
2022-12-03T08:45:35.811Z,14.70
2022-12-03T08:48:14.388Z,8.38
2022-12-03T08:50:43.163Z,9.50
2022-12-03T08:53:13.779Z,9.80
2022-12-03T08:55:53.833Z,9.27
2022-12-03T08:58:42.368Z,13.60
2022-12-03T09:01:12.037Z,22.73
2022-12-03T09:03:51.270Z,11.52
2022-12-03T09:06:19.345Z,15.45
2022-12-03T09:08:47.226Z,12.48
2022-12-03T09:11:15.236Z,10.77
2022-12-03T09:13:44.097Z,10.90
2022-12-03T09:16:13.479Z,10.52
2022-12-03T09:18:41.051Z,10.10
2022-12-03T09:21:09.852Z,8.88
2022-12-03T09:23:38.085Z,9.38
2022-12-03T09:26:05.723Z,8.20
2022-12-03T09:28:33.287Z,10.85
2022-12-03T09:31:01.259Z,9.07
2022-12-03T09:33:28.858Z,32.63
2022-12-03T09:35:56.119Z,28.38
2022-12-03T09:38:25.909Z,12.68
2022-12-03T09:40:54.512Z,10.70
2022-12-03T09:43:22.673Z,13.23
2022-12-03T09:45:51.017Z,11.90
2022-12-03T09:48:20.876Z,13.40
2022-12-03T09:50:50.413Z,14.57
2022-12-03T09:53:22.413Z,11.48
2022-12-03T09:55:50.178Z,10.88
2022-12-03T09:58:20.454Z,11.40
2022-12-03T10:00:51.015Z,16.15
2022-12-03T10:03:29.523Z,19.15
2022-12-03T10:05:57.899Z,14.30
2022-12-03T10:08:31.997Z,13.07
2022-12-03T10:10:59.714Z,12.05
2022-12-03T10:13:30.250Z,21.10
2022-12-03T10:16:00.298Z,15.00
2022-12-03T10:18:32.763Z,14.00
2022-12-03T10:21:04.212Z,14.20
2022-12-03T10:23:31.894Z,13.82
2022-12-03T10:26:04.360Z,14.90
2022-12-03T10:28:37.979Z,11.73
2022-12-03T10:31:12.554Z,13.90
2022-12-03T10:33:46.175Z,23.13
2022-12-03T10:36:24.913Z,17.23
2022-12-03T10:39:08.025Z,15.23
2022-12-03T10:41:36.379Z,19.85
2022-12-03T10:44:25.846Z,13.57
2022-12-03T10:47:07.955Z,11.40
2022-12-03T10:49:37.291Z,9.85
2022-12-03T10:52:06.322Z,11.82
2022-12-03T10:54:36.677Z,19.25
2022-12-03T10:57:05.062Z,12.52
2022-12-03T10:59:35.101Z,20.85
2022-12-03T11:02:07.357Z,17.42
2022-12-03T11:04:37.166Z,27.85
2022-12-03T11:07:20.468Z,22.27
2022-12-03T11:09:52.001Z,13.38
2022-12-03T11:12:19.558Z,16.27
2022-12-03T11:14:56.922Z,18.73
2022-12-03T11:17:44.382Z,18.80
2022-12-03T11:20:32.445Z,20.58
2022-12-03T11:23:00.325Z,12.88
2022-12-03T11:25:45.950Z,15.57
2022-12-03T11:28:13.129Z,15.70
2022-12-03T11:30:46.897Z,13.00
2022-12-03T11:33:23.164Z,16.50
2022-12-03T11:36:31.766Z,15.35
2022-12-03T11:39:08.586Z,23.88
2022-12-03T11:41:36.300Z,15.65
2022-12-03T11:44:26.860Z,12.20
2022-12-03T11:46:56.678Z,12.65
2022-12-03T11:49:48.215Z,12.60
2022-12-03T11:52:27.770Z,15.07
2022-12-03T11:55:04.945Z,13.48
2022-12-03T11:57:37.281Z,11.85
2022-12-03T12:00:23.804Z,12.15
2022-12-03T12:02:54.328Z,14.85
2022-12-03T12:05:33.695Z,10.68
2022-12-03T12:08:02.687Z,11.55
2022-12-03T12:11:01.257Z,11.07
2022-12-03T12:13:31.823Z,11.52
2022-12-03T12:16:06.410Z,10.45
2022-12-03T12:18:38.576Z,11.23
2022-12-03T12:21:57.274Z,13.90
2022-12-03T12:24:51.171Z,13.05
2022-12-03T12:27:30.829Z,12.25
2022-12-03T12:30:20.438Z,12.90
2022-12-03T12:33:14.618Z,22.25
2022-12-03T12:35:43.324Z,36.60
2022-12-03T12:38:19.938Z,14.02
2022-12-03T12:40:50.382Z,19.60
2022-12-03T12:43:25.305Z,28.73
2022-12-03T12:46:24.896Z,22.55
2022-12-03T12:48:57.932Z,32.70
2022-12-03T12:51:29.493Z,20.13
2022-12-03T12:53:57.574Z,16.45
2022-12-03T12:56:28.260Z,15.07
2022-12-03T12:59:10.619Z,16.95
2022-12-03T13:01:40.012Z,13.32
2022-12-03T13:04:12.757Z,11.85
2022-12-03T13:06:40.877Z,12.43
2022-12-03T13:09:33.341Z,13.52
2022-12-03T13:12:07.542Z,15.10
2022-12-03T13:14:37.568Z,35.72
2022-12-03T13:17:24.564Z,13.23
2022-12-03T13:20:05.162Z,29.92
2022-12-03T13:22:35.288Z,15.18
2022-12-03T13:26:00.247Z,14.07
2022-12-03T13:28:25.029Z,48.65
2022-12-03T13:30:52.893Z,13.52
2022-12-03T13:33:28.879Z,12.55
2022-12-03T13:38:25.295Z,24.10
2022-12-03T13:41:00.244Z,19.45
2022-12-03T13:43:33.102Z,13.60
2022-12-03T13:46:00.709Z,45.97
2022-12-03T13:48:35.246Z,22.33
2022-12-03T13:51:34.848Z,18.50
2022-12-03T13:54:05.996Z,15.18
2022-12-03T13:56:33.784Z,29.30
2022-12-03T13:59:02.077Z,15.13
2022-12-03T14:01:30.105Z,27.20
2022-12-03T14:03:59.607Z,18.88
2022-12-03T14:06:26.885Z,13.90
2022-12-03T14:08:55.674Z,13.50
2022-12-03T14:11:41.439Z,13.32
2022-12-03T14:14:11.100Z,13.35
2022-12-03T14:16:42.571Z,13.18
2022-12-03T14:19:13.991Z,12.37
2022-12-03T14:21:43.229Z,13.20
2022-12-03T14:24:24.094Z,12.23
2022-12-03T14:26:54.165Z,14.90
2022-12-03T14:29:21.871Z,12.60
2022-12-03T14:31:50.158Z,14.73
2022-12-03T14:34:17.709Z,17.00
2022-12-03T14:36:45.205Z,15.25
2022-12-03T14:39:12.976Z,20.98
2022-12-03T14:42:00.185Z,16.10
2022-12-03T14:44:29.616Z,15.93
2022-12-03T14:46:57.671Z,15.90
2022-12-03T14:49:26.231Z,16.33
2022-12-03T14:51:54.657Z,15.65
2022-12-03T14:54:22.912Z,16.35
2022-12-03T14:56:50.228Z,14.88
2022-12-03T14:59:25.849Z,14.13
2022-12-03T15:01:57.968Z,15.93
2022-12-03T15:04:31.224Z,16.02
2022-12-03T15:06:59.346Z,14.80
2022-12-03T15:09:27.631Z,17.63
2022-12-03T15:11:55.300Z,17.40
2022-12-03T15:14:25.560Z,15.93
2022-12-03T15:16:53.954Z,18.13
2022-12-03T15:19:22.886Z,24.25
2022-12-03T15:21:53.803Z,22.25
2022-12-03T15:24:21.935Z,21.08
2022-12-03T15:26:49.754Z,19.45
2022-12-03T15:29:17.289Z,26.65
2022-12-03T15:31:44.879Z,22.10
2022-12-03T15:34:17.343Z,36.50
2022-12-03T15:36:47.971Z,25.20
2022-12-03T15:39:15.556Z,21.88
2022-12-03T15:41:43.353Z,24.42
2022-12-03T15:44:12.462Z,18.95
2022-12-03T15:46:39.786Z,20.42
2022-12-03T15:49:08.774Z,20.42
2022-12-03T15:51:36.012Z,19.63
2022-12-03T15:54:03.707Z,19.40
2022-12-03T15:56:31.579Z,20.38
2022-12-03T15:58:59.450Z,22.83
2022-12-03T16:01:27.200Z,25.38
2022-12-03T16:03:56.485Z,24.95
2022-12-03T16:06:25.696Z,33.50
2022-12-03T16:08:54.780Z,36.35
2022-12-03T16:11:23.401Z,22.20
2022-12-03T16:13:50.952Z,28.58
2022-12-03T16:16:18.510Z,19.70
2022-12-03T16:18:47.491Z,22.67
2022-12-03T16:21:14.859Z,28.67
2022-12-03T16:23:42.531Z,18.25
2022-12-03T16:26:09.942Z,23.88
2022-12-03T16:28:37.585Z,20.42
2022-12-03T16:31:05.448Z,22.58
2022-12-03T16:33:35.703Z,24.38
2022-12-03T16:36:02.997Z,18.00
2022-12-03T16:38:31.141Z,22.52
2022-12-03T16:40:59.307Z,20.55
2022-12-03T16:43:27.062Z,19.33
2022-12-03T16:46:20.429Z,18.55
2022-12-03T16:48:48.670Z,19.50
2022-12-03T16:51:16.622Z,18.02
2022-12-03T16:53:44.241Z,18.95
2022-12-03T16:56:12.311Z,19.88
2022-12-03T16:58:41.205Z,19.23
2022-12-03T17:01:08.800Z,23.02
2022-12-03T17:03:36.799Z,21.80
2022-12-03T17:06:04.950Z,22.65
2022-12-03T17:08:33.264Z,19.77
2022-12-03T17:11:00.499Z,30.83
2022-12-03T17:13:28.192Z,27.38
2022-12-03T17:15:55.476Z,25.15
2022-12-03T17:18:23.162Z,24.17
2022-12-03T17:20:50.492Z,20.02
2022-12-03T17:23:18.693Z,20.83
2022-12-03T17:25:46.022Z,21.27
2022-12-03T17:28:14.200Z,21.90
2022-12-03T17:30:41.509Z,20.40
2022-12-03T17:33:09.306Z,21.52
2022-12-03T17:35:36.623Z,22.50
2022-12-03T17:38:04.269Z,18.55
2022-12-03T17:40:31.931Z,23.02
2022-12-03T17:43:00.226Z,52.85
2022-12-03T17:45:27.668Z,24.13
2022-12-03T17:47:55.272Z,29.33
2022-12-03T17:50:23.105Z,27.33
2022-12-03T17:52:51.368Z,23.40
2022-12-03T17:55:28.116Z,25.20
2022-12-03T17:57:58.762Z,23.23
2022-12-03T18:00:26.196Z,19.95
2022-12-03T18:02:54.165Z,21.13
2022-12-03T18:05:23.107Z,17.08
2022-12-03T18:07:51.452Z,17.95
2022-12-03T18:10:18.846Z,22.45
2022-12-03T18:12:46.439Z,20.08
2022-12-03T18:15:13.725Z,21.48
2022-12-03T18:17:43.436Z,18.35
2022-12-03T18:20:11.390Z,20.58
2022-12-03T18:22:41.248Z,19.95
2022-12-03T18:25:09.484Z,17.17
2022-12-03T18:27:37.064Z,20.30
2022-12-03T18:30:05.159Z,19.88
2022-12-03T18:32:34.839Z,19.88
2022-12-03T18:35:02.156Z,19.88
2022-12-03T18:37:31.915Z,18.90
2022-12-03T18:40:00.615Z,18.88
2022-12-03T18:42:29.375Z,19.05
2022-12-03T18:44:57.148Z,13.82
2022-12-03T18:47:28.774Z,16.30
2022-12-03T18:49:57.944Z,17.27
2022-12-03T18:52:25.782Z,16.42
2022-12-03T18:54:54.514Z,17.10
2022-12-03T18:57:23.886Z,16.90
2022-12-03T18:59:51.183Z,15.00
2022-12-03T19:03:01.868Z,16.17
2022-12-03T19:05:13.818Z,16.55
2022-12-03T19:07:44.340Z,16.58
2022-12-03T19:10:14.744Z,14.90
2022-12-03T19:12:42.309Z,15.88
2022-12-03T19:15:10.595Z,14.32
2022-12-03T19:17:40.178Z,15.07
2022-12-03T19:20:11.658Z,15.57
2022-12-03T19:22:39.398Z,16.50
2022-12-03T19:25:06.944Z,17.05
2022-12-03T19:27:36.093Z,16.08
2022-12-03T19:30:04.271Z,16.40
2022-12-03T19:32:34.173Z,16.13
2022-12-03T19:35:05.289Z,17.08
2022-12-03T19:37:34.118Z,14.88
2022-12-03T19:40:03.525Z,20.60
2022-12-03T19:42:33.541Z,17.88
2022-12-03T19:45:02.124Z,20.48
2022-12-03T19:47:31.147Z,19.63
2022-12-03T19:49:59.581Z,12.48
2022-12-03T19:52:27.318Z,18.55
2022-12-03T19:54:54.597Z,16.17
2022-12-03T19:57:23.660Z,16.85
2022-12-03T19:59:51.680Z,14.88
2022-12-03T20:02:19.684Z,12.80
2022-12-03T20:04:47.224Z,18.10
2022-12-03T20:07:14.817Z,49.30
2022-12-03T20:09:44.124Z,39.78
2022-12-03T20:12:15.212Z,18.15
2022-12-03T20:14:45.448Z,20.10
2022-12-03T20:17:15.026Z,25.83
2022-12-03T20:19:42.397Z,19.17
2022-12-03T20:22:11.182Z,22.35
2022-12-03T20:24:38.490Z,17.38
2022-12-03T20:27:06.540Z,15.07
2022-12-03T20:29:34.582Z,14.73
2022-12-03T20:32:02.193Z,15.10
2022-12-03T20:34:29.699Z,12.90
2022-12-03T20:36:58.114Z,12.43
2022-12-03T20:39:25.400Z,25.30
2022-12-03T20:41:54.018Z,20.02
2022-12-03T20:44:24.130Z,14.27
2022-12-03T20:46:52.368Z,17.60
2022-12-03T20:49:19.703Z,29.33
2022-12-03T20:51:50.338Z,14.77
2022-12-03T20:54:18.033Z,40.72
2022-12-03T20:56:45.632Z,30.55
2022-12-03T20:59:16.857Z,24.15
2022-12-03T21:01:45.363Z,13.05
2022-12-03T21:04:16.799Z,17.60
2022-12-03T21:06:45.383Z,18.50
2022-12-03T21:09:13.501Z,12.85
2022-12-03T21:11:42.654Z,12.93
2022-12-03T21:14:11.363Z,12.25
2022-12-03T21:17:07.455Z,11.60
2022-12-03T21:19:32.097Z,13.48
2022-12-03T21:22:00.982Z,14.50
2022-12-03T21:24:30.021Z,10.40
2022-12-03T21:26:57.665Z,12.25
2022-12-03T21:29:25.410Z,11.85
2022-12-03T21:31:53.031Z,12.40
2022-12-03T21:34:21.780Z,12.85
2022-12-03T21:36:49.333Z,11.98
2022-12-03T21:39:16.727Z,13.68
2022-12-03T21:42:19.307Z,11.40
2022-12-03T21:44:33.072Z,10.50
2022-12-03T21:47:10.096Z,11.48
2022-12-03T21:49:41.436Z,10.32
2022-12-03T21:52:09.343Z,9.20
2022-12-03T21:54:36.754Z,9.13
2022-12-03T21:57:06.000Z,7.82
2022-12-03T21:59:33.431Z,8.85
2022-12-03T22:02:01.315Z,8.15
2022-12-03T22:04:29.033Z,9.90
2022-12-03T22:06:57.465Z,7.72
2022-12-03T22:09:27.057Z,8.00
2022-12-03T22:11:57.050Z,7.68
2022-12-03T22:14:24.381Z,7.65
2022-12-03T22:16:51.947Z,7.43
2022-12-03T22:19:22.643Z,8.70
2022-12-03T22:21:50.623Z,7.95
2022-12-03T22:24:19.452Z,7.88
2022-12-03T22:26:47.661Z,7.03
2022-12-03T22:29:15.448Z,7.32
2022-12-03T22:31:43.031Z,6.47
2022-12-03T22:34:10.232Z,7.38
2022-12-03T22:36:37.972Z,7.60
2022-12-03T22:39:05.234Z,6.22
2022-12-03T22:41:32.933Z,7.65
2022-12-03T22:44:00.374Z,7.60
2022-12-03T22:46:29.531Z,7.10
2022-12-03T22:49:00.576Z,7.20
2022-12-03T22:51:33.388Z,6.57
2022-12-03T22:54:02.137Z,6.88
2022-12-03T22:56:30.642Z,6.63
2022-12-03T22:58:58.359Z,5.72
2022-12-03T23:01:28.560Z,6.75
2022-12-03T23:03:57.440Z,5.93
2022-12-03T23:06:26.032Z,5.82
2022-12-03T23:08:53.342Z,9.52
2022-12-03T23:11:21.820Z,8.02
2022-12-03T23:13:49.235Z,10.15
2022-12-03T23:16:20.523Z,8.73
2022-12-03T23:18:47.858Z,8.65
2022-12-03T23:21:17.210Z,7.45
2022-12-03T23:23:45.163Z,7.95
2022-12-03T23:26:14.850Z,7.60
2022-12-03T23:28:44.931Z,9.35
2022-12-03T23:31:23.517Z,9.20
2022-12-03T23:33:51.872Z,11.00
2022-12-03T23:36:19.900Z,7.18
2022-12-03T23:38:47.311Z,7.70
2022-12-03T23:41:17.875Z,6.57
2022-12-03T23:43:45.380Z,8.40
2022-12-03T23:46:23.089Z,7.75
2022-12-03T23:48:51.687Z,8.25
2022-12-03T23:51:24.654Z,6.90
2022-12-03T23:53:54.163Z,6.75
2022-12-03T23:56:27.252Z,10.35
2022-12-03T23:59:13.091Z,7.40
